sensor_id;sensor_type;location;lat;lon;timestamp;P1;durP1;ratioP1;P2;durP2;ratioP2
2854;SDS011;1435;49.472;10.940;2022-07-23T00:02:53;14.23;;;10.50;;
2854;SDS011;1435;49.472;10.940;2022-07-23T00:07:57;10.10;;;8.90;;
2854;SDS011;1435;49.472;10.940;2022-07-23T00:12:58;10.60;;;9.70;;
2854;SDS011;1435;49.472;10.940;2022-07-23T00:18:00;9.67;;;8.63;;
2854;SDS011;1435;49.472;10.940;2022-07-23T00:23:03;9.53;;;8.43;;
2854;SDS011;1435;49.472;10.940;2022-07-23T00:28:05;10.03;;;9.17;;
2854;SDS011;1435;49.472;10.940;2022-07-23T00:33:07;9.40;;;8.60;;
2854;SDS011;1435;49.472;10.940;2022-07-23T00:38:10;10.40;;;9.57;;
2854;SDS011;1435;49.472;10.940;2022-07-23T00:43:12;9.43;;;8.47;;
2854;SDS011;1435;49.472;10.940;2022-07-23T00:48:14;10.90;;;10.00;;
2854;SDS011;1435;49.472;10.940;2022-07-23T00:53:17;10.50;;;9.50;;
2854;SDS011;1435;49.472;10.940;2022-07-23T00:58:20;10.17;;;9.17;;
2854;SDS011;1435;49.472;10.940;2022-07-23T01:03:22;10.03;;;9.03;;
2854;SDS011;1435;49.472;10.940;2022-07-23T01:08:25;10.80;;;9.83;;
2854;SDS011;1435;49.472;10.940;2022-07-23T01:13:27;9.77;;;8.87;;
2854;SDS011;1435;49.472;10.940;2022-07-23T01:18:28;10.67;;;9.77;;
2854;SDS011;1435;49.472;10.940;2022-07-23T01:23:31;10.63;;;9.63;;
2854;SDS011;1435;49.472;10.940;2022-07-23T01:28:33;10.40;;;9.50;;
2854;SDS011;1435;49.472;10.940;2022-07-23T01:33:35;10.23;;;9.33;;
2854;SDS011;1435;49.472;10.940;2022-07-23T01:38:38;10.73;;;9.67;;
2854;SDS011;1435;49.472;10.940;2022-07-23T01:43:39;10.83;;;9.83;;
2854;SDS011;1435;49.472;10.940;2022-07-23T01:48:41;10.87;;;9.77;;
2854;SDS011;1435;49.472;10.940;2022-07-23T01:53:44;12.07;;;10.20;;
2854;SDS011;1435;49.472;10.940;2022-07-23T01:58:46;11.50;;;10.40;;
2854;SDS011;1435;49.472;10.940;2022-07-23T02:03:48;12.70;;;11.37;;
2854;SDS011;1435;49.472;10.940;2022-07-23T02:08:51;10.87;;;9.83;;
2854;SDS011;1435;49.472;10.940;2022-07-23T02:13:53;11.87;;;10.67;;
2854;SDS011;1435;49.472;10.940;2022-07-23T02:18:54;10.60;;;9.70;;
2854;SDS011;1435;49.472;10.940;2022-07-23T02:23:57;11.13;;;10.00;;
2854;SDS011;1435;49.472;10.940;2022-07-23T02:28:59;11.50;;;10.57;;
2854;SDS011;1435;49.472;10.940;2022-07-23T02:34:01;11.67;;;10.67;;
2854;SDS011;1435;49.472;10.940;2022-07-23T02:39:05;11.77;;;10.67;;
2854;SDS011;1435;49.472;10.940;2022-07-23T02:44:06;10.80;;;9.87;;
2854;SDS011;1435;49.472;10.940;2022-07-23T02:49:08;11.00;;;10.10;;
2854;SDS011;1435;49.472;10.940;2022-07-23T02:54:11;11.30;;;10.40;;
2854;SDS011;1435;49.472;10.940;2022-07-23T02:59:13;11.57;;;10.57;;
2854;SDS011;1435;49.472;10.940;2022-07-23T03:04:14;11.23;;;10.30;;
2854;SDS011;1435;49.472;10.940;2022-07-23T03:09:17;12.20;;;11.17;;
2854;SDS011;1435;49.472;10.940;2022-07-23T03:14:19;12.03;;;10.80;;
2854;SDS011;1435;49.472;10.940;2022-07-23T03:19:21;11.00;;;9.97;;
2854;SDS011;1435;49.472;10.940;2022-07-23T03:24:24;10.93;;;9.90;;
2854;SDS011;1435;49.472;10.940;2022-07-23T03:29:45;11.87;;;10.87;;
2854;SDS011;1435;49.472;10.940;2022-07-23T03:34:47;11.07;;;10.00;;
2854;SDS011;1435;49.472;10.940;2022-07-23T03:39:50;11.40;;;10.30;;
2854;SDS011;1435;49.472;10.940;2022-07-23T03:44:52;10.97;;;10.00;;
2854;SDS011;1435;49.472;10.940;2022-07-23T03:49:54;11.50;;;10.60;;
2854;SDS011;1435;49.472;10.940;2022-07-23T03:54:57;11.53;;;10.50;;
2854;SDS011;1435;49.472;10.940;2022-07-23T03:59:58;11.47;;;10.47;;
2854;SDS011;1435;49.472;10.940;2022-07-23T04:05:00;11.17;;;10.27;;
2854;SDS011;1435;49.472;10.940;2022-07-23T04:10:04;11.43;;;10.43;;
2854;SDS011;1435;49.472;10.940;2022-07-23T04:15:07;9.77;;;8.90;;
2854;SDS011;1435;49.472;10.940;2022-07-23T04:20:09;11.43;;;10.47;;
2854;SDS011;1435;49.472;10.940;2022-07-23T04:25:13;10.03;;;9.13;;
2854;SDS011;1435;49.472;10.940;2022-07-23T04:30:16;10.63;;;9.73;;
2854;SDS011;1435;49.472;10.940;2022-07-23T04:35:18;9.37;;;8.47;;
2854;SDS011;1435;49.472;10.940;2022-07-23T04:40:22;32.90;;;12.37;;
2854;SDS011;1435;49.472;10.940;2022-07-23T04:45:23;10.10;;;9.27;;
2854;SDS011;1435;49.472;10.940;2022-07-23T04:50:25;9.33;;;8.53;;
2854;SDS011;1435;49.472;10.940;2022-07-23T04:55:28;9.97;;;9.17;;
2854;SDS011;1435;49.472;10.940;2022-07-23T05:00:30;9.77;;;8.27;;
2854;SDS011;1435;49.472;10.940;2022-07-23T05:05:32;9.33;;;8.57;;
2854;SDS011;1435;49.472;10.940;2022-07-23T05:10:35;8.33;;;7.63;;
2854;SDS011;1435;49.472;10.940;2022-07-23T05:15:37;8.40;;;7.70;;
2854;SDS011;1435;49.472;10.940;2022-07-23T05:20:38;8.03;;;7.33;;
2854;SDS011;1435;49.472;10.940;2022-07-23T05:25:41;8.00;;;7.30;;
2854;SDS011;1435;49.472;10.940;2022-07-23T05:30:43;7.70;;;7.00;;
2854;SDS011;1435;49.472;10.940;2022-07-23T05:35:45;7.70;;;7.10;;
2854;SDS011;1435;49.472;10.940;2022-07-23T05:40:48;7.17;;;6.60;;
2854;SDS011;1435;49.472;10.940;2022-07-23T05:45:49;7.90;;;6.77;;
2854;SDS011;1435;49.472;10.940;2022-07-23T05:50:51;8.40;;;7.70;;
2854;SDS011;1435;49.472;10.940;2022-07-23T05:55:54;7.50;;;6.90;;
2854;SDS011;1435;49.472;10.940;2022-07-23T06:00:56;7.30;;;5.60;;
2854;SDS011;1435;49.472;10.940;2022-07-23T06:05:57;6.83;;;6.23;;
2854;SDS011;1435;49.472;10.940;2022-07-23T06:11:00;6.07;;;5.57;;
2854;SDS011;1435;49.472;10.940;2022-07-23T06:16:02;6.97;;;6.13;;
2854;SDS011;1435;49.472;10.940;2022-07-23T06:21:04;6.07;;;5.60;;
2854;SDS011;1435;49.472;10.940;2022-07-23T06:26:07;7.67;;;6.20;;
2854;SDS011;1435;49.472;10.940;2022-07-23T06:31:09;6.77;;;6.27;;
2854;SDS011;1435;49.472;10.940;2022-07-23T06:36:11;6.50;;;6.00;;
2854;SDS011;1435;49.472;10.940;2022-07-23T06:41:14;6.77;;;6.27;;
2854;SDS011;1435;49.472;10.940;2022-07-23T06:46:16;7.07;;;6.37;;
2854;SDS011;1435;49.472;10.940;2022-07-23T06:51:17;7.63;;;7.00;;
2854;SDS011;1435;49.472;10.940;2022-07-23T06:56:21;8.83;;;8.07;;
2854;SDS011;1435;49.472;10.940;2022-07-23T07:01:23;9.50;;;8.60;;
2854;SDS011;1435;49.472;10.940;2022-07-23T07:06:24;8.63;;;7.73;;
2854;SDS011;1435;49.472;10.940;2022-07-23T07:11:27;9.70;;;8.70;;
2854;SDS011;1435;49.472;10.940;2022-07-23T07:16:29;8.73;;;7.93;;
2854;SDS011;1435;49.472;10.940;2022-07-23T07:21:31;9.20;;;8.30;;
2854;SDS011;1435;49.472;10.940;2022-07-23T07:26:34;8.53;;;7.70;;
2854;SDS011;1435;49.472;10.940;2022-07-23T07:31:35;8.67;;;7.97;;
2854;SDS011;1435;49.472;10.940;2022-07-23T07:36:37;9.10;;;8.20;;
2854;SDS011;1435;49.472;10.940;2022-07-23T07:41:40;8.23;;;7.47;;
2854;SDS011;1435;49.472;10.940;2022-07-23T07:46:42;9.00;;;8.20;;
2854;SDS011;1435;49.472;10.940;2022-07-23T07:51:43;10.37;;;9.27;;
2854;SDS011;1435;49.472;10.940;2022-07-23T07:56:46;10.30;;;9.50;;
2854;SDS011;1435;49.472;10.940;2022-07-23T08:01:48;10.40;;;9.50;;
2854;SDS011;1435;49.472;10.940;2022-07-23T08:06:50;10.73;;;9.73;;
2854;SDS011;1435;49.472;10.940;2022-07-23T08:11:53;10.57;;;9.47;;
2854;SDS011;1435;49.472;10.940;2022-07-23T08:16:55;8.77;;;7.97;;
2854;SDS011;1435;49.472;10.940;2022-07-23T08:21:56;8.70;;;7.73;;
2854;SDS011;1435;49.472;10.940;2022-07-23T08:26:59;8.43;;;7.70;;
2854;SDS011;1435;49.472;10.940;2022-07-23T08:32:01;8.03;;;7.50;;
2854;SDS011;1435;49.472;10.940;2022-07-23T08:37:03;7.67;;;6.97;;
2854;SDS011;1435;49.472;10.940;2022-07-23T08:42:06;8.00;;;7.23;;
2854;SDS011;1435;49.472;10.940;2022-07-23T08:47:08;7.83;;;7.13;;
2854;SDS011;1435;49.472;10.940;2022-07-23T08:52:10;7.70;;;7.10;;
2854;SDS011;1435;49.472;10.940;2022-07-23T08:57:13;7.50;;;6.87;;
2854;SDS011;1435;49.472;10.940;2022-07-23T09:02:15;7.40;;;6.80;;
2854;SDS011;1435;49.472;10.940;2022-07-23T09:07:17;7.93;;;7.13;;
2854;SDS011;1435;49.472;10.940;2022-07-23T09:12:20;7.13;;;6.53;;
2854;SDS011;1435;49.472;10.940;2022-07-23T09:17:27;8.50;;;7.70;;
2854;SDS011;1435;49.472;10.940;2022-07-23T09:22:41;9.00;;;8.10;;
2854;SDS011;1435;49.472;10.940;2022-07-23T09:27:57;7.67;;;7.00;;
2854;SDS011;1435;49.472;10.940;2022-07-23T09:33:09;7.40;;;6.70;;
2854;SDS011;1435;49.472;10.940;2022-07-23T09:38:11;9.07;;;8.27;;
2854;SDS011;1435;49.472;10.940;2022-07-23T09:43:25;8.87;;;8.07;;
2854;SDS011;1435;49.472;10.940;2022-07-23T09:48:28;8.80;;;7.90;;
2854;SDS011;1435;49.472;10.940;2022-07-23T09:53:29;10.20;;;8.40;;
2854;SDS011;1435;49.472;10.940;2022-07-23T09:58:32;9.23;;;8.43;;
2854;SDS011;1435;49.472;10.940;2022-07-23T10:03:43;8.67;;;7.87;;
2854;SDS011;1435;49.472;10.940;2022-07-23T10:08:46;9.80;;;9.00;;
2854;SDS011;1435;49.472;10.940;2022-07-23T10:13:51;8.87;;;8.10;;
2854;SDS011;1435;49.472;10.940;2022-07-23T10:18:56;9.77;;;8.80;;
2854;SDS011;1435;49.472;10.940;2022-07-23T10:24:01;8.70;;;8.00;;
2854;SDS011;1435;49.472;10.940;2022-07-23T10:29:25;9.90;;;9.10;;
2854;SDS011;1435;49.472;10.940;2022-07-23T10:34:44;9.37;;;8.57;;
2854;SDS011;1435;49.472;10.940;2022-07-23T10:45:29;9.97;;;9.00;;
2854;SDS011;1435;49.472;10.940;2022-07-23T10:50:32;9.07;;;8.37;;
2854;SDS011;1435;49.472;10.940;2022-07-23T10:55:40;10.10;;;9.10;;
2854;SDS011;1435;49.472;10.940;2022-07-23T11:00:45;10.30;;;9.40;;
2854;SDS011;1435;49.472;10.940;2022-07-23T11:05:47;9.67;;;8.87;;
2854;SDS011;1435;49.472;10.940;2022-07-23T11:10:50;9.90;;;8.90;;
2854;SDS011;1435;49.472;10.940;2022-07-23T11:16:08;9.47;;;8.77;;
2854;SDS011;1435;49.472;10.940;2022-07-23T11:26:58;8.20;;;7.40;;
2854;SDS011;1435;49.472;10.940;2022-07-23T11:32:03;10.10;;;9.20;;
2854;SDS011;1435;49.472;10.940;2022-07-23T11:37:06;9.57;;;8.70;;
2854;SDS011;1435;49.472;10.940;2022-07-23T11:42:09;9.67;;;8.70;;
2854;SDS011;1435;49.472;10.940;2022-07-23T11:47:12;10.07;;;9.07;;
2854;SDS011;1435;49.472;10.940;2022-07-23T11:52:14;9.93;;;9.03;;
2854;SDS011;1435;49.472;10.940;2022-07-23T11:57:17;8.70;;;8.00;;
2854;SDS011;1435;49.472;10.940;2022-07-23T12:02:20;10.57;;;9.40;;
2854;SDS011;1435;49.472;10.940;2022-07-23T12:07:23;10.37;;;9.47;;
2854;SDS011;1435;49.472;10.940;2022-07-23T12:12:34;10.03;;;9.13;;
2854;SDS011;1435;49.472;10.940;2022-07-23T12:17:39;11.43;;;10.53;;
2854;SDS011;1435;49.472;10.940;2022-07-23T12:22:43;9.90;;;9.10;;
2854;SDS011;1435;49.472;10.940;2022-07-23T12:27:46;12.20;;;9.20;;
2854;SDS011;1435;49.472;10.940;2022-07-23T12:33:00;10.50;;;9.70;;
2854;SDS011;1435;49.472;10.940;2022-07-23T12:38:02;9.13;;;8.23;;
2854;SDS011;1435;49.472;10.940;2022-07-23T12:43:06;10.77;;;9.77;;
2854;SDS011;1435;49.472;10.940;2022-07-23T12:48:15;9.67;;;8.67;;
2854;SDS011;1435;49.472;10.940;2022-07-23T12:53:22;8.93;;;8.23;;
2854;SDS011;1435;49.472;10.940;2022-07-23T12:58:25;9.17;;;8.47;;
2854;SDS011;1435;49.472;10.940;2022-07-23T13:03:29;9.63;;;8.73;;
2854;SDS011;1435;49.472;10.940;2022-07-23T13:08:33;10.23;;;9.33;;
2854;SDS011;1435;49.472;10.940;2022-07-23T13:13:35;9.00;;;8.10;;
2854;SDS011;1435;49.472;10.940;2022-07-23T13:18:38;10.07;;;9.27;;
2854;SDS011;1435;49.472;10.940;2022-07-23T13:23:40;9.17;;;8.40;;
2854;SDS011;1435;49.472;10.940;2022-07-23T13:28:43;9.57;;;8.77;;
2854;SDS011;1435;49.472;10.940;2022-07-23T13:33:46;8.70;;;7.90;;
2854;SDS011;1435;49.472;10.940;2022-07-23T13:38:48;7.93;;;7.33;;
2854;SDS011;1435;49.472;10.940;2022-07-23T13:43:50;9.80;;;9.00;;
2854;SDS011;1435;49.472;10.940;2022-07-23T13:48:53;8.57;;;7.87;;
2854;SDS011;1435;49.472;10.940;2022-07-23T13:53:54;9.30;;;8.60;;
2854;SDS011;1435;49.472;10.940;2022-07-23T13:58:59;9.73;;;8.70;;
2854;SDS011;1435;49.472;10.940;2022-07-23T14:04:02;9.30;;;8.47;;
2854;SDS011;1435;49.472;10.940;2022-07-23T14:09:04;8.77;;;8.07;;
2854;SDS011;1435;49.472;10.940;2022-07-23T14:14:06;9.00;;;8.30;;
2854;SDS011;1435;49.472;10.940;2022-07-23T14:19:09;10.50;;;9.00;;
2854;SDS011;1435;49.472;10.940;2022-07-23T14:24:11;8.50;;;7.77;;
2854;SDS011;1435;49.472;10.940;2022-07-23T14:29:13;8.87;;;8.17;;
2854;SDS011;1435;49.472;10.940;2022-07-23T14:34:16;6.80;;;6.40;;
2854;SDS011;1435;49.472;10.940;2022-07-23T14:39:18;7.90;;;7.30;;
2854;SDS011;1435;49.472;10.940;2022-07-23T14:44:21;7.20;;;6.63;;
2854;SDS011;1435;49.472;10.940;2022-07-23T14:49:24;8.87;;;8.10;;
2854;SDS011;1435;49.472;10.940;2022-07-23T14:54:26;8.20;;;7.37;;
2854;SDS011;1435;49.472;10.940;2022-07-23T14:59:28;6.93;;;6.43;;
2854;SDS011;1435;49.472;10.940;2022-07-23T15:04:32;8.33;;;7.53;;
2854;SDS011;1435;49.472;10.940;2022-07-23T15:09:34;8.63;;;7.83;;
2854;SDS011;1435;49.472;10.940;2022-07-23T15:14:36;7.60;;;7.00;;
2854;SDS011;1435;49.472;10.940;2022-07-23T15:19:39;8.70;;;8.00;;
2854;SDS011;1435;49.472;10.940;2022-07-23T15:24:40;9.07;;;8.27;;
2854;SDS011;1435;49.472;10.940;2022-07-23T15:29:42;8.43;;;7.73;;
2854;SDS011;1435;49.472;10.940;2022-07-23T15:34:45;8.87;;;8.07;;
2854;SDS011;1435;49.472;10.940;2022-07-23T15:39:47;8.30;;;7.50;;
2854;SDS011;1435;49.472;10.940;2022-07-23T15:44:48;8.93;;;7.97;;
2854;SDS011;1435;49.472;10.940;2022-07-23T15:49:52;8.23;;;7.53;;
2854;SDS011;1435;49.472;10.940;2022-07-23T15:54:53;8.70;;;8.00;;
2854;SDS011;1435;49.472;10.940;2022-07-23T15:59:55;7.80;;;7.20;;
2854;SDS011;1435;49.472;10.940;2022-07-23T16:04:58;8.80;;;8.00;;
2854;SDS011;1435;49.472;10.940;2022-07-23T16:10:00;8.53;;;7.87;;
2854;SDS011;1435;49.472;10.940;2022-07-23T16:15:02;8.77;;;8.10;;
2854;SDS011;1435;49.472;10.940;2022-07-23T16:20:06;9.00;;;8.10;;
2854;SDS011;1435;49.472;10.940;2022-07-23T16:25:08;9.03;;;8.03;;
2854;SDS011;1435;49.472;10.940;2022-07-23T16:30:11;9.00;;;8.10;;
2854;SDS011;1435;49.472;10.940;2022-07-23T16:35:15;8.80;;;8.20;;
2854;SDS011;1435;49.472;10.940;2022-07-23T16:40:17;9.53;;;8.53;;
2854;SDS011;1435;49.472;10.940;2022-07-23T16:45:18;8.90;;;8.00;;
2854;SDS011;1435;49.472;10.940;2022-07-23T16:50:22;8.10;;;7.40;;
2854;SDS011;1435;49.472;10.940;2022-07-23T16:55:23;8.23;;;7.50;;
2854;SDS011;1435;49.472;10.940;2022-07-23T17:00:25;8.60;;;7.90;;
2854;SDS011;1435;49.472;10.940;2022-07-23T17:05:28;7.57;;;6.90;;
2854;SDS011;1435;49.472;10.940;2022-07-23T17:10:30;7.97;;;7.37;;
2854;SDS011;1435;49.472;10.940;2022-07-23T17:15:32;8.53;;;7.73;;
2854;SDS011;1435;49.472;10.940;2022-07-23T17:20:36;8.40;;;7.70;;
2854;SDS011;1435;49.472;10.940;2022-07-23T17:25:37;7.67;;;7.03;;
2854;SDS011;1435;49.472;10.940;2022-07-23T17:30:39;7.90;;;7.03;;
2854;SDS011;1435;49.472;10.940;2022-07-23T17:35:42;7.40;;;6.80;;
2854;SDS011;1435;49.472;10.940;2022-07-23T17:40:44;9.10;;;7.43;;
2854;SDS011;1435;49.472;10.940;2022-07-23T17:45:45;9.87;;;7.60;;
2854;SDS011;1435;49.472;10.940;2022-07-23T17:50:48;8.63;;;8.03;;
2854;SDS011;1435;49.472;10.940;2022-07-23T17:55:50;7.90;;;7.20;;
2854;SDS011;1435;49.472;10.940;2022-07-23T18:00:53;8.37;;;7.77;;
2854;SDS011;1435;49.472;10.940;2022-07-23T18:05:56;8.40;;;7.80;;
2854;SDS011;1435;49.472;10.940;2022-07-23T18:10:58;9.40;;;8.60;;
2854;SDS011;1435;49.472;10.940;2022-07-23T18:15:59;7.60;;;7.00;;
2854;SDS011;1435;49.472;10.940;2022-07-23T18:21:02;8.87;;;8.17;;
2854;SDS011;1435;49.472;10.940;2022-07-23T18:26:05;9.10;;;8.17;;
2854;SDS011;1435;49.472;10.940;2022-07-23T18:31:07;7.63;;;7.03;;
2854;SDS011;1435;49.472;10.940;2022-07-23T18:36:10;8.30;;;7.60;;
2854;SDS011;1435;49.472;10.940;2022-07-23T18:41:12;7.83;;;7.23;;
2854;SDS011;1435;49.472;10.940;2022-07-23T18:46:14;9.10;;;8.27;;
2854;SDS011;1435;49.472;10.940;2022-07-23T18:51:17;7.90;;;7.17;;
2854;SDS011;1435;49.472;10.940;2022-07-23T18:56:20;7.87;;;7.27;;
2854;SDS011;1435;49.472;10.940;2022-07-23T19:01:21;8.00;;;7.30;;
2854;SDS011;1435;49.472;10.940;2022-07-23T19:06:25;8.30;;;7.60;;
2854;SDS011;1435;49.472;10.940;2022-07-23T19:11:27;7.80;;;7.10;;
2854;SDS011;1435;49.472;10.940;2022-07-23T19:16:29;7.70;;;7.00;;
2854;SDS011;1435;49.472;10.940;2022-07-23T19:21:32;7.30;;;6.80;;
2854;SDS011;1435;49.472;10.940;2022-07-23T19:26:33;8.27;;;7.67;;
2854;SDS011;1435;49.472;10.940;2022-07-23T19:31:35;8.03;;;7.37;;
2854;SDS011;1435;49.472;10.940;2022-07-23T19:36:38;8.10;;;7.50;;
2854;SDS011;1435;49.472;10.940;2022-07-23T19:41:40;7.33;;;6.73;;
2854;SDS011;1435;49.472;10.940;2022-07-23T19:46:41;7.63;;;7.00;;
2854;SDS011;1435;49.472;10.940;2022-07-23T19:51:45;8.50;;;7.70;;
2854;SDS011;1435;49.472;10.940;2022-07-23T19:56:46;7.60;;;7.00;;
2854;SDS011;1435;49.472;10.940;2022-07-23T20:01:48;6.90;;;6.40;;
2854;SDS011;1435;49.472;10.940;2022-07-23T20:06:51;8.00;;;7.30;;
2854;SDS011;1435;49.472;10.940;2022-07-23T20:11:53;7.97;;;7.27;;
2854;SDS011;1435;49.472;10.940;2022-07-23T20:16:54;6.93;;;6.33;;
2854;SDS011;1435;49.472;10.940;2022-07-23T20:21:57;8.20;;;7.50;;
2854;SDS011;1435;49.472;10.940;2022-07-23T20:26:59;7.93;;;7.23;;
2854;SDS011;1435;49.472;10.940;2022-07-23T20:32:01;8.00;;;7.40;;
2854;SDS011;1435;49.472;10.940;2022-07-23T20:37:04;6.87;;;6.37;;
2854;SDS011;1435;49.472;10.940;2022-07-23T20:42:06;7.40;;;6.90;;
2854;SDS011;1435;49.472;10.940;2022-07-23T20:47:07;8.17;;;7.47;;
2854;SDS011;1435;49.472;10.940;2022-07-23T20:52:10;7.57;;;6.97;;
2854;SDS011;1435;49.472;10.940;2022-07-23T20:57:12;8.00;;;7.40;;
2854;SDS011;1435;49.472;10.940;2022-07-23T21:02:14;7.53;;;6.93;;
2854;SDS011;1435;49.472;10.940;2022-07-23T21:07:17;7.80;;;7.20;;
2854;SDS011;1435;49.472;10.940;2022-07-23T21:12:19;7.70;;;7.00;;
2854;SDS011;1435;49.472;10.940;2022-07-23T21:17:21;7.40;;;6.90;;
2854;SDS011;1435;49.472;10.940;2022-07-23T21:22:24;9.10;;;8.30;;
2854;SDS011;1435;49.472;10.940;2022-07-23T21:27:26;7.93;;;7.33;;
2854;SDS011;1435;49.472;10.940;2022-07-23T21:32:28;8.10;;;7.40;;
2854;SDS011;1435;49.472;10.940;2022-07-23T21:37:32;8.53;;;7.83;;
2854;SDS011;1435;49.472;10.940;2022-07-23T21:42:34;7.90;;;7.30;;
2854;SDS011;1435;49.472;10.940;2022-07-23T21:47:35;7.83;;;7.23;;
2854;SDS011;1435;49.472;10.940;2022-07-23T21:52:38;7.73;;;7.13;;
2854;SDS011;1435;49.472;10.940;2022-07-23T21:57:41;6.93;;;6.43;;
2854;SDS011;1435;49.472;10.940;2022-07-23T22:02:44;9.03;;;8.13;;
2854;SDS011;1435;49.472;10.940;2022-07-23T22:07:47;8.53;;;7.40;;
2854;SDS011;1435;49.472;10.940;2022-07-23T22:12:49;8.37;;;7.77;;
2854;SDS011;1435;49.472;10.940;2022-07-23T22:17:51;7.53;;;6.83;;
2854;SDS011;1435;49.472;10.940;2022-07-23T22:22:54;7.87;;;7.13;;
2854;SDS011;1435;49.472;10.940;2022-07-23T22:27:56;7.53;;;6.93;;
2854;SDS011;1435;49.472;10.940;2022-07-23T22:32:57;8.53;;;7.73;;
2854;SDS011;1435;49.472;10.940;2022-07-23T22:38:01;8.13;;;7.53;;
2854;SDS011;1435;49.472;10.940;2022-07-23T22:43:02;8.87;;;8.10;;
2854;SDS011;1435;49.472;10.940;2022-07-23T22:48:04;8.63;;;7.90;;
2854;SDS011;1435;49.472;10.940;2022-07-23T22:53:07;9.13;;;8.37;;
2854;SDS011;1435;49.472;10.940;2022-07-23T22:58:09;8.30;;;7.70;;
2854;SDS011;1435;49.472;10.940;2022-07-23T23:03:11;9.60;;;8.73;;
2854;SDS011;1435;49.472;10.940;2022-07-23T23:08:14;9.10;;;8.20;;
2854;SDS011;1435;49.472;10.940;2022-07-23T23:13:15;9.67;;;8.87;;
2854;SDS011;1435;49.472;10.940;2022-07-23T23:18:17;10.50;;;7.90;;
2854;SDS011;1435;49.472;10.940;2022-07-23T23:23:20;8.67;;;7.97;;
2854;SDS011;1435;49.472;10.940;2022-07-23T23:28:21;7.93;;;7.23;;
2854;SDS011;1435;49.472;10.940;2022-07-23T23:33:23;8.93;;;7.97;;
2854;SDS011;1435;49.472;10.940;2022-07-23T23:38:26;10.37;;;9.30;;
2854;SDS011;1435;49.472;10.940;2022-07-23T23:43:28;10.33;;;9.47;;
2854;SDS011;1435;49.472;10.940;2022-07-23T23:48:29;9.70;;;8.90;;
2854;SDS011;1435;49.472;10.940;2022-07-23T23:53:32;10.63;;;9.63;;
2854;SDS011;1435;49.472;10.940;2022-07-23T23:58:34;9.10;;;8.40;;
